Time,TemperatureF,DewpointF,PressureIn,WindDirection,WindDirectionDegrees,WindSpeedMPH,WindSpeedGustMPH,Humidity,HourlyPrecipIn,Conditions,Clouds,dailyrainin,SoftwareType,DateUTC
2013-12-29 00:06:00,47.7,30.0,30.01,NNW,337,2.7,-999.0,50,-99.99,,,0.00,Acu-Link.com,2013-12-29 08:06:00,
2013-12-29 00:21:00,47.8,30.1,30.00,NW,315,2.7,-999.0,50,-99.99,,,0.00,Acu-Link.com,2013-12-29 08:21:00,
2013-12-29 00:36:00,47.3,30.1,30.01,WNW,292,3.7,-999.0,51,-99.99,,,0.00,Acu-Link.com,2013-12-29 08:36:00,
2013-12-29 00:51:00,47.5,30.3,30.01,West,270,2.7,-999.0,51,-99.99,,,0.00,Acu-Link.com,2013-12-29 08:51:00,
2013-12-29 01:06:00,47.3,30.1,30.01,West,270,1.7,-999.0,51,-99.99,,,0.00,Acu-Link.com,2013-12-29 09:06:00,
2013-12-29 01:21:00,47.5,30.3,30.01,WNW,292,2.7,-999.0,51,-99.99,,,0.00,Acu-Link.com,2013-12-29 09:21:00,
2013-12-29 01:37:00,47.5,30.3,30.01,NW,315,2.2,-999.0,51,-99.99,,,0.00,Acu-Link.com,2013-12-29 09:37:00,
2013-12-29 01:52:00,46.8,30.1,30.02,WNW,292,0.0,-999.0,52,-99.99,,,0.00,Acu-Link.com,2013-12-29 09:52:00,
2013-12-29 02:07:00,46.6,29.9,30.02,WSW,247,1.7,-999.0,52,-99.99,,,0.00,Acu-Link.com,2013-12-29 10:07:00,
2013-12-29 02:22:00,46.4,30.2,30.02,West,270,2.2,-999.0,53,-99.99,,,0.00,Acu-Link.com,2013-12-29 10:22:00,
2013-12-29 02:37:00,46.6,30.4,30.02,WNW,292,2.7,-999.0,53,-99.99,,,0.00,Acu-Link.com,2013-12-29 10:37:00,
2013-12-29 02:52:00,46.8,30.6,30.03,West,270,1.1,-999.0,53,-99.99,,,0.00,Acu-Link.com,2013-12-29 10:52:00,
2013-12-29 03:07:00,46.2,30.0,30.03,North,0,0.0,-999.0,53,-99.99,,,0.00,Acu-Link.com,2013-12-29 11:07:00,
2013-12-29 03:23:00,45.5,29.8,30.03,West,270,0.0,-999.0,54,-99.99,,,0.00,Acu-Link.com,2013-12-29 11:23:00,
2013-12-29 03:38:00,45.3,30.1,30.03,SW,225,0.0,-999.0,55,-99.99,,,0.00,Acu-Link.com,2013-12-29 11:38:00,
2013-12-29 03:53:00,45.0,29.8,30.03,West,270,2.7,-999.0,55,-99.99,,,0.00,Acu-Link.com,2013-12-29 11:53:00,
2013-12-29 04:08:00,44.1,28.1,30.03,West,270,0.0,-999.0,53,-99.99,,,0.00,Acu-Link.com,2013-12-29 12:08:00,
2013-12-29 04:23:00,43.9,29.2,30.03,West,270,0.0,-999.0,56,-99.99,,,0.00,Acu-Link.com,2013-12-29 12:23:00,
2013-12-29 04:38:00,44.1,29.4,30.02,West,270,0.0,-999.0,56,-99.99,,,0.00,Acu-Link.com,2013-12-29 12:38:00,
2013-12-29 04:53:00,43.9,29.7,30.03,East,90,0.0,-999.0,57,-99.99,,,0.00,Acu-Link.com,2013-12-29 12:53:00,
2013-12-29 05:08:00,43.9,29.7,30.03,WSW,247,2.2,-999.0,57,-99.99,,,0.00,Acu-Link.com,2013-12-29 13:08:00,
2013-12-29 05:23:00,44.2,29.9,30.03,WNW,292,0.0,-999.0,57,-99.99,,,0.00,Acu-Link.com,2013-12-29 13:23:00,
2013-12-29 05:39:00,43.9,29.7,30.03,NNW,337,0.0,-999.0,57,-99.99,,,0.00,Acu-Link.com,2013-12-29 13:39:00,
2013-12-29 05:54:00,43.9,29.7,30.04,South,180,1.7,-999.0,57,-99.99,,,0.00,Acu-Link.com,2013-12-29 13:54:00,
2013-12-29 06:09:00,43.9,28.3,30.04,SSE,157,1.1,-999.0,54,-99.99,,,0.00,Acu-Link.com,2013-12-29 14:09:00,
2013-12-29 06:24:00,43.5,28.4,30.04,WSW,247,2.2,-999.0,55,-99.99,,,0.00,Acu-Link.com,2013-12-29 14:24:00,
2013-12-29 06:39:00,42.8,25.0,30.05,ESE,112,0.0,-999.0,49,-99.99,,,0.00,Acu-Link.com,2013-12-29 14:39:00,
2013-12-29 06:55:00,43.0,23.7,30.04,SSE,157,1.1,-999.0,46,-99.99,,,0.00,Acu-Link.com,2013-12-29 14:55:00,
2013-12-29 07:10:00,42.4,24.6,30.05,WSW,247,0.0,-999.0,49,-99.99,,,0.00,Acu-Link.com,2013-12-29 15:10:00,
2013-12-29 07:25:00,43.2,27.2,30.06,WNW,292,0.0,-999.0,53,-99.99,,,0.00,Acu-Link.com,2013-12-29 15:25:00,
2013-12-29 07:40:00,43.0,27.5,30.07,West,270,0.0,-999.0,54,-99.99,,,0.00,Acu-Link.com,2013-12-29 15:40:00,
2013-12-29 07:55:00,45.3,29.2,30.07,South,180,0.0,-999.0,53,-99.99,,,0.00,Acu-Link.com,2013-12-29 15:55:00,
2013-12-29 08:10:00,49.3,29.4,30.07,South,180,0.0,-999.0,46,-99.99,,,0.00,Acu-Link.com,2013-12-29 16:10:00,
2013-12-29 08:26:00,52.3,29.9,30.08,WNW,292,0.0,-999.0,42,-99.99,,,0.00,Acu-Link.com,2013-12-29 16:26:00,
2013-12-29 08:41:00,55.6,30.4,30.08,ENE,67,0.0,-999.0,38,-99.99,,,0.00,Acu-Link.com,2013-12-29 16:41:00,
2013-12-29 08:56:00,58.1,32.0,30.09,NW,315,0.0,-999.0,37,-99.99,,,0.00,Acu-Link.com,2013-12-29 16:56:00,
2013-12-29 09:11:00,61.5,32.1,30.09,NNW,337,1.1,-999.0,33,-99.99,,,0.00,Acu-Link.com,2013-12-29 17:11:00,
2013-12-29 09:27:00,61.9,32.5,30.08,WNW,292,1.7,-999.0,33,-99.99,,,0.00,Acu-Link.com,2013-12-29 17:27:00,
2013-12-29 09:42:00,63.0,33.4,30.09,West,270,1.7,-999.0,33,-99.99,,,0.00,Acu-Link.com,2013-12-29 17:42:00,
2013-12-29 09:57:00,62.8,34.7,30.10,NE,45,0.0,-999.0,35,-99.99,,,0.00,Acu-Link.com,2013-12-29 17:57:00,
2013-12-29 10:12:00,62.2,34.2,30.11,NE,45,1.1,-999.0,35,-99.99,,,0.00,Acu-Link.com,2013-12-29 18:12:00,
2013-12-29 10:28:00,63.1,35.0,30.10,WSW,247,2.2,-999.0,35,-99.99,,,0.00,Acu-Link.com,2013-12-29 18:28:00,
2013-12-29 10:43:00,62.8,36.1,30.10,ENE,67,3.7,-999.0,37,-99.99,,,0.00,Acu-Link.com,2013-12-29 18:43:00,
2013-12-29 10:58:00,61.5,35.7,30.11,ESE,112,2.2,-999.0,38,-99.99,,,0.00,Acu-Link.com,2013-12-29 18:58:00,
2013-12-29 11:13:00,61.9,35.3,30.11,East,90,1.7,-999.0,37,-99.99,,,0.00,Acu-Link.com,2013-12-29 19:13:00,
2013-12-29 11:28:00,61.3,34.8,30.11,NE,45,3.7,-999.0,37,-99.99,,,0.00,Acu-Link.com,2013-12-29 19:28:00,
2013-12-29 11:43:00,61.9,35.3,30.09,NE,45,2.2,-999.0,37,-99.99,,,0.00,Acu-Link.com,2013-12-29 19:43:00,
2013-12-29 11:58:00,61.0,35.2,30.09,NE,45,3.2,-999.0,38,-99.99,,,0.00,Acu-Link.com,2013-12-29 19:58:00,
2013-12-29 12:14:00,62.2,36.3,30.08,SW,225,2.2,-999.0,38,-99.99,,,0.00,Acu-Link.com,2013-12-29 20:14:00,
2013-12-29 12:29:00,62.4,34.4,30.07,East,90,2.7,-999.0,35,-99.99,,,0.00,Acu-Link.com,2013-12-29 20:29:00,
2013-12-29 12:44:00,62.1,35.5,30.07,ENE,67,4.2,-999.0,37,-99.99,,,0.00,Acu-Link.com,2013-12-29 20:44:00,
2013-12-29 12:59:00,61.0,35.2,30.06,ENE,67,2.2,-999.0,38,-99.99,,,0.00,Acu-Link.com,2013-12-29 20:59:00,
2013-12-29 13:14:00,62.2,35.6,30.05,ESE,112,3.2,-999.0,37,-99.99,,,0.00,Acu-Link.com,2013-12-29 21:14:00,
2013-12-29 13:29:00,62.6,36.0,30.05,East,90,1.7,-999.0,37,-99.99,,,0.00,Acu-Link.com,2013-12-29 21:29:00,
2013-12-29 13:44:00,63.9,36.4,30.05,East,90,1.7,-999.0,36,-99.99,,,0.00,Acu-Link.com,2013-12-29 21:44:00,
2013-12-29 13:59:00,66.0,36.8,30.04,ESE,112,2.7,-999.0,34,-99.99,,,0.00,Acu-Link.com,2013-12-29 21:59:00,
2013-12-29 14:14:00,66.9,36.1,30.04,NNE,22,2.2,-999.0,32,-99.99,,,0.00,Acu-Link.com,2013-12-29 22:14:00,
2013-12-29 14:30:00,65.1,36.0,30.04,NNW,337,1.1,-999.0,34,-99.99,,,0.00,Acu-Link.com,2013-12-29 22:30:00,
2013-12-29 14:45:00,63.5,35.4,30.04,SE,135,2.7,-999.0,35,-99.99,,,0.00,Acu-Link.com,2013-12-29 22:45:00,
2013-12-29 15:00:00,63.5,36.1,30.05,NE,45,4.2,-999.0,36,-99.99,,,0.00,Acu-Link.com,2013-12-29 23:00:00,
2013-12-29 15:15:00,64.0,37.2,30.05,ENE,67,2.2,-999.0,37,-99.99,,,0.00,Acu-Link.com,2013-12-29 23:15:00,
2013-12-29 15:30:00,62.8,36.8,30.05,SE,135,2.2,-999.0,38,-99.99,,,0.00,Acu-Link.com,2013-12-29 23:30:00,
2013-12-29 15:45:00,61.7,36.5,30.05,ENE,67,2.7,-999.0,39,-99.99,,,0.00,Acu-Link.com,2013-12-29 23:45:00,
2013-12-29 16:01:00,61.5,36.3,30.05,NNE,22,1.7,-999.0,39,-99.99,,,0.00,Acu-Link.com,2013-12-30 00:01:00,
2013-12-29 16:16:00,60.4,36.0,30.05,SSW,202,0.0,-999.0,40,-99.99,,,0.00,Acu-Link.com,2013-12-30 00:16:00,
2013-12-29 16:31:00,59.2,35.5,30.06,SSE,157,1.7,-999.0,41,-99.99,,,0.00,Acu-Link.com,2013-12-30 00:31:00,
2013-12-29 16:46:00,57.0,34.1,30.06,ESE,112,1.7,-999.0,42,-99.99,,,0.00,Acu-Link.com,2013-12-30 00:46:00,
2013-12-29 17:02:00,55.2,34.2,30.07,ESE,112,1.1,-999.0,45,-99.99,,,0.00,Acu-Link.com,2013-12-30 01:02:00,
2013-12-29 17:17:00,53.4,34.2,30.06,SSE,157,2.2,-999.0,48,-99.99,,,0.00,Acu-Link.com,2013-12-30 01:17:00,
2013-12-29 17:32:00,52.9,33.8,30.06,SSE,157,2.2,-999.0,48,-99.99,,,0.00,Acu-Link.com,2013-12-30 01:32:00,
2013-12-29 17:47:00,52.3,33.7,30.06,SE,135,1.1,-999.0,49,-99.99,,,0.00,Acu-Link.com,2013-12-30 01:47:00,
2013-12-29 18:02:00,51.1,33.6,30.06,NNE,22,0.0,-999.0,51,-99.99,,,0.00,Acu-Link.com,2013-12-30 02:02:00,
2013-12-29 18:17:00,51.4,34.8,30.06,NW,315,2.2,-999.0,53,-99.99,,,0.00,Acu-Link.com,2013-12-30 02:17:00,
2013-12-29 18:33:00,51.4,34.4,30.06,NNW,337,0.0,-999.0,52,-99.99,,,0.00,Acu-Link.com,2013-12-30 02:33:00,
2013-12-29 18:48:00,51.6,35.0,30.06,WSW,247,4.2,-999.0,53,-99.99,,,0.00,Acu-Link.com,2013-12-30 02:48:00,
2013-12-29 19:03:00,52.7,35.1,30.07,SW,225,3.2,-999.0,51,-99.99,,,0.00,Acu-Link.com,2013-12-30 03:03:00,
2013-12-29 19:18:00,53.2,35.0,30.07,SSW,202,5.3,-999.0,50,-99.99,,,0.00,Acu-Link.com,2013-12-30 03:18:00,
2013-12-29 19:33:00,53.2,35.0,30.07,WSW,247,3.2,-999.0,50,-99.99,,,0.00,Acu-Link.com,2013-12-30 03:33:00,
2013-12-29 19:48:00,52.9,34.8,30.07,SSW,202,1.1,-999.0,50,-99.99,,,0.00,Acu-Link.com,2013-12-30 03:48:00,
2013-12-29 20:03:00,52.2,34.1,30.07,WNW,292,0.0,-999.0,50,-99.99,,,0.00,Acu-Link.com,2013-12-30 04:03:00,
2013-12-29 20:18:00,51.6,33.6,30.08,SW,225,2.2,-999.0,50,-99.99,,,0.00,Acu-Link.com,2013-12-30 04:18:00,
2013-12-29 20:33:00,51.4,33.4,30.08,SW,225,2.2,-999.0,50,-99.99,,,0.00,Acu-Link.com,2013-12-30 04:33:00,
2013-12-29 20:49:00,51.6,32.6,30.08,SSW,202,2.2,-999.0,48,-99.99,,,0.00,Acu-Link.com,2013-12-30 04:49:00,
2013-12-29 21:04:00,51.6,32.0,30.09,West,270,2.2,-999.0,47,-99.99,,,0.00,Acu-Link.com,2013-12-30 05:04:00,
2013-12-29 21:19:00,51.3,31.8,30.10,North,0,2.2,-999.0,47,-99.99,,,0.00,Acu-Link.com,2013-12-30 05:19:00,
2013-12-29 21:34:00,50.9,30.9,30.10,SSW,202,4.7,-999.0,46,-99.99,,,0.00,Acu-Link.com,2013-12-30 05:34:00,
2013-12-29 21:49:00,51.3,30.7,30.10,SSE,157,2.7,-999.0,45,-99.99,,,0.00,Acu-Link.com,2013-12-30 05:49:00,
2013-12-29 22:04:00,50.7,30.7,30.10,West,270,4.2,-999.0,46,-99.99,,,0.00,Acu-Link.com,2013-12-30 06:04:00,
2013-12-29 22:19:00,50.2,30.2,30.11,SSW,202,2.7,-999.0,46,-99.99,,,0.00,Acu-Link.com,2013-12-30 06:19:00,
2013-12-29 22:35:00,50.0,30.0,30.11,South,180,2.2,-999.0,46,-99.99,,,0.00,Acu-Link.com,2013-12-30 06:35:00,
2013-12-29 22:50:00,49.6,30.2,30.11,West,270,2.2,-999.0,47,-99.99,,,0.00,Acu-Link.com,2013-12-30 06:50:00,
2013-12-29 23:05:00,50.0,30.0,30.11,West,270,1.7,-999.0,46,-99.99,,,0.00,Acu-Link.com,2013-12-30 07:05:00,
2013-12-29 23:20:00,49.6,29.7,30.11,West,270,1.7,-999.0,46,-99.99,,,0.00,Acu-Link.com,2013-12-30 07:20:00,
2013-12-29 23:35:00,49.8,29.3,30.11,WSW,247,6.3,-999.0,45,-99.99,,,0.00,Acu-Link.com,2013-12-30 07:35:00,
2013-12-29 23:50:00,49.5,29.1,30.12,WSW,247,3.7,-999.0,45,-99.99,,,0.00,Acu-Link.com,2013-12-30 07:50:00,